createdAt,value
2022-11-02T00:01:42.700Z,101450.50
2022-11-02T00:04:06.261Z,101451.47
2022-11-02T00:06:29.889Z,101444.59
2022-11-02T00:08:53.417Z,101442.19
2022-11-02T00:11:17.034Z,101442.47
2022-11-02T00:13:40.610Z,101440.47
2022-11-02T00:16:05.546Z,101441.53
2022-11-02T00:18:30.982Z,101444.47
2022-11-02T00:20:54.828Z,101448.00
2022-11-02T00:23:18.356Z,101452.63
2022-11-02T00:25:48.724Z,101458.31
2022-11-02T00:28:12.586Z,101452.97
2022-11-02T00:30:36.185Z,101453.19
2022-11-02T00:32:59.763Z,101448.94
2022-11-02T00:35:24.806Z,101449.94
2022-11-02T00:37:48.457Z,101448.00
2022-11-02T00:40:14.274Z,101448.38
2022-11-02T00:42:37.866Z,101449.44
2022-11-02T00:45:01.711Z,101445.28
2022-11-02T00:47:25.377Z,101453.88
2022-11-02T00:49:50.455Z,101454.50
2022-11-02T00:52:15.808Z,101456.44
2022-11-02T00:54:42.908Z,101459.69
2022-11-02T00:57:06.584Z,101458.47
2022-11-02T00:59:30.206Z,101455.69
2022-11-02T01:01:54.287Z,101451.19
2022-11-02T01:04:18.622Z,101446.50
2022-11-02T01:06:42.893Z,101440.69
2022-11-02T01:09:07.997Z,101444.31
2022-11-02T01:11:31.542Z,101447.53
2022-11-02T01:13:55.440Z,101445.53
2022-11-02T01:16:19.146Z,101451.94
2022-11-02T01:18:43.685Z,101450.88
2022-11-02T01:21:07.490Z,101459.38
2022-11-02T01:23:33.903Z,101451.56
2022-11-02T01:25:58.812Z,101448.88
2022-11-02T01:28:22.482Z,101453.47
2022-11-02T01:30:49.234Z,101451.09
2022-11-02T01:33:12.981Z,101471.34
2022-11-02T01:35:38.534Z,101451.94
2022-11-02T01:38:02.434Z,101453.56
2022-11-02T01:40:27.085Z,101448.47
2022-11-02T01:42:52.085Z,101442.19
2022-11-02T01:45:16.126Z,101427.28
2022-11-02T01:47:42.444Z,101432.69
2022-11-02T01:50:11.917Z,101432.91
2022-11-02T01:52:38.422Z,101429.94
2022-11-02T01:55:08.976Z,101430.66
2022-11-02T01:57:35.217Z,101418.47
2022-11-02T02:00:07.274Z,101422.47
2022-11-02T02:02:46.306Z,101436.28
2022-11-02T02:05:13.318Z,101425.16
2022-11-02T02:07:40.081Z,101430.84
2022-11-02T02:10:04.280Z,101430.59
2022-11-02T02:12:32.120Z,101431.03
2022-11-02T02:14:56.029Z,101425.69
2022-11-02T02:17:33.180Z,101417.50
2022-11-02T02:20:03.976Z,101422.16
2022-11-02T02:23:16.729Z,101412.50
2022-11-02T02:26:08.870Z,101417.06
2022-11-02T02:28:42.780Z,101422.41
2022-11-02T02:31:16.086Z,101423.53
2022-11-02T02:33:47.880Z,101414.75
2022-11-02T02:36:21.647Z,101415.59
2022-11-02T02:38:49.817Z,101417.03
2022-11-02T02:41:20.555Z,101420.28
2022-11-02T02:43:51.275Z,101419.75
2022-11-02T02:46:21.681Z,101418.47
2022-11-02T02:48:47.860Z,101412.25
2022-11-02T02:51:16.019Z,101412.72
2022-11-02T02:53:44.914Z,101402.09
2022-11-02T02:56:13.685Z,101399.69
2022-11-02T02:58:43.888Z,101400.66
2022-11-02T03:01:13.380Z,101411.16
2022-11-02T03:03:37.442Z,101402.19
2022-11-02T03:06:16.464Z,101398.38
2022-11-02T03:08:50.428Z,101398.06
2022-11-02T03:11:17.412Z,101400.81
2022-11-02T03:14:02.426Z,101401.34
2022-11-02T03:16:48.003Z,101399.34
2022-11-02T03:19:24.092Z,101400.31
2022-11-02T03:21:56.870Z,101411.84
2022-11-02T03:24:28.609Z,101407.44
2022-11-02T03:27:08.224Z,101408.38
2022-11-02T03:29:41.520Z,101400.56
2022-11-02T03:32:13.527Z,101397.88
2022-11-02T03:34:42.784Z,101396.94
2022-11-02T03:37:18.075Z,101401.66
2022-11-02T03:39:46.664Z,101407.13
2022-11-02T03:42:15.274Z,101404.63
2022-11-02T03:44:41.317Z,101407.91
2022-11-02T03:47:12.717Z,101399.13
2022-11-02T03:49:38.830Z,101407.91
2022-11-02T03:52:06.798Z,101404.13
2022-11-02T03:54:44.538Z,101412.91
2022-11-02T03:57:11.914Z,101402.22
2022-11-02T03:59:36.709Z,101407.22
2022-11-02T04:02:02.781Z,101411.88
2022-11-02T04:04:28.807Z,101403.00
2022-11-02T04:06:54.321Z,101401.00
2022-11-02T04:09:18.946Z,101400.16
2022-11-02T04:12:00.365Z,101396.97
2022-11-02T04:14:41.415Z,101389.13
2022-11-02T04:19:58.920Z,101394.97
2022-11-02T04:22:41.229Z,101394.03
2022-11-02T04:25:19.663Z,101401.28
2022-11-02T04:28:10.478Z,101398.44
2022-11-02T04:30:42.739Z,101405.56
2022-11-02T04:33:23.450Z,101401.97
2022-11-02T04:35:54.213Z,101403.25
2022-11-02T04:38:36.012Z,101406.88
2022-11-02T04:41:15.021Z,101402.47
2022-11-02T04:43:40.528Z,101407.13
2022-11-02T04:46:04.828Z,101403.59
2022-11-02T04:48:29.771Z,101402.00
2022-11-02T04:50:55.071Z,101397.38
2022-11-02T04:53:18.698Z,101398.38
2022-11-02T04:55:42.350Z,101402.44
2022-11-02T04:58:06.700Z,101401.16
2022-11-02T05:00:30.579Z,101404.69
2022-11-02T05:02:54.994Z,101402.88
2022-11-02T05:05:20.382Z,101394.97
2022-11-02T05:07:47.792Z,101395.13
2022-11-02T05:10:12.135Z,101396.75
2022-11-02T05:12:36.500Z,101392.03
2022-11-02T05:15:00.141Z,101396.94
2022-11-02T05:17:23.933Z,101395.13
2022-11-02T05:19:47.662Z,101394.81
2022-11-02T05:22:11.425Z,101393.94
2022-11-02T05:24:36.461Z,101410.31
2022-11-02T05:27:02.162Z,101407.56
2022-11-02T05:29:28.018Z,101397.91
2022-11-02T05:31:51.620Z,101394.19
2022-11-02T05:34:15.474Z,101399.28
2022-11-02T05:36:39.270Z,101395.84
2022-11-02T05:39:03.154Z,101399.56
2022-11-02T05:41:29.383Z,101399.88
2022-11-02T05:43:55.421Z,101403.59
2022-11-02T05:46:20.692Z,101400.38
2022-11-02T05:48:44.349Z,101406.44
2022-11-02T05:51:08.428Z,101406.13
2022-11-02T05:53:37.357Z,101388.56
2022-11-02T05:56:02.044Z,101387.25
2022-11-02T05:58:27.026Z,101394.06
2022-11-02T06:00:50.621Z,101398.66
2022-11-02T06:03:14.170Z,101407.63
2022-11-02T06:05:37.864Z,101402.09
2022-11-02T06:08:02.250Z,101402.88
2022-11-02T06:10:25.893Z,101399.00
2022-11-02T06:12:55.830Z,101406.16
2022-11-02T06:15:20.975Z,101398.72
2022-11-02T06:17:44.514Z,101400.56
2022-11-02T06:20:10.453Z,101409.78
2022-11-02T06:22:41.082Z,101407.22
2022-11-02T06:25:04.856Z,101412.03
2022-11-02T06:27:28.515Z,101409.94
2022-11-02T06:29:52.180Z,101411.66
2022-11-02T06:32:17.155Z,101410.72
2022-11-02T06:34:40.877Z,101404.75
2022-11-02T06:37:04.426Z,101415.13
2022-11-02T06:39:28.037Z,101407.53
2022-11-02T06:41:51.578Z,101415.88
2022-11-02T06:44:15.168Z,101418.56
2022-11-02T06:46:38.955Z,101418.91
2022-11-02T06:49:04.046Z,101427.78
2022-11-02T06:51:27.589Z,101422.41
2022-11-02T06:53:51.246Z,101437.94
2022-11-02T06:56:15.097Z,101433.34
2022-11-02T06:58:38.737Z,101436.00
2022-11-02T07:01:05.067Z,101439.28
2022-11-02T07:03:29.477Z,101438.69
2022-11-02T07:05:55.307Z,101430.31
2022-11-02T07:08:18.930Z,101442.97
2022-11-02T07:10:42.545Z,101433.63
2022-11-02T07:13:06.561Z,101431.88
2022-11-02T07:15:30.578Z,101429.31
2022-11-02T07:17:54.781Z,101427.72
2022-11-02T07:20:19.252Z,101426.97
2022-11-02T07:22:45.208Z,101430.59
2022-11-02T07:25:09.533Z,101425.91
2022-11-02T07:27:33.102Z,101427.25
2022-11-02T07:29:56.678Z,101427.66
2022-11-02T07:32:20.322Z,101435.78
2022-11-02T07:34:43.828Z,101440.38
2022-11-02T07:37:07.472Z,101436.09
2022-11-02T07:39:32.389Z,101438.72
2022-11-02T07:41:55.984Z,101430.75
2022-11-02T07:44:21.262Z,101436.25
2022-11-02T07:46:50.729Z,101436.25
2022-11-02T07:49:18.706Z,101448.25
2022-11-02T07:51:44.793Z,101444.81
2022-11-02T07:54:08.409Z,101443.84
2022-11-02T07:56:33.376Z,101447.81
2022-11-02T07:58:56.945Z,101455.03
2022-11-02T08:01:20.730Z,101437.06
2022-11-02T08:03:44.342Z,101439.75
2022-11-02T08:06:08.571Z,101437.16
2022-11-02T08:08:32.169Z,101452.94
2022-11-02T08:10:55.901Z,101445.13
2022-11-02T08:13:23.109Z,101445.13
2022-11-02T08:15:49.711Z,101450.41
2022-11-02T08:18:16.437Z,101439.16
2022-11-02T08:20:40.189Z,101440.56
2022-11-02T08:23:04.354Z,101442.94
2022-11-02T08:25:28.541Z,101441.09
2022-11-02T08:27:52.105Z,101450.47
2022-11-02T08:30:17.297Z,101445.97
2022-11-02T08:32:40.906Z,101454.25
2022-11-02T08:35:05.180Z,101448.81
2022-11-02T08:37:28.708Z,101457.22
2022-11-02T08:39:52.349Z,101450.59
2022-11-02T08:42:15.864Z,101451.84
2022-11-02T08:44:42.479Z,101448.72
2022-11-02T08:47:09.480Z,101444.16
2022-11-02T08:49:33.434Z,101442.59
2022-11-02T08:51:56.952Z,101435.53
2022-11-02T08:54:20.570Z,101440.59
2022-11-02T08:56:44.143Z,101442.41
2022-11-02T08:59:07.974Z,101446.28
2022-11-02T09:01:31.641Z,101433.78
2022-11-02T09:03:56.699Z,101439.16
2022-11-02T09:06:20.293Z,101438.00
2022-11-02T09:08:43.940Z,101441.00
2022-11-02T09:11:07.614Z,101442.63
2022-11-02T09:13:31.834Z,101441.84
2022-11-02T09:15:58.014Z,101441.13
2022-11-02T09:18:22.207Z,101435.88
2022-11-02T09:20:48.621Z,101440.75
2022-11-02T09:23:12.290Z,101438.16
2022-11-02T09:25:35.807Z,101430.47
2022-11-02T09:27:59.979Z,101436.31
2022-11-02T09:30:25.198Z,101434.59
2022-11-02T09:32:56.238Z,101435.28
2022-11-02T09:35:20.180Z,101439.16
2022-11-02T09:37:50.857Z,101430.47
2022-11-02T09:40:16.435Z,101439.47
2022-11-02T09:42:54.802Z,101442.19
2022-11-02T09:45:19.813Z,101450.72
2022-11-02T09:48:16.458Z,101444.47
2022-11-02T09:50:49.349Z,101442.19
2022-11-02T09:53:20.993Z,101440.19
2022-11-02T09:55:51.313Z,101443.03
2022-11-02T09:58:22.108Z,101450.75
2022-11-02T10:00:50.762Z,101451.16
2022-11-02T10:03:29.864Z,101445.69
2022-11-02T10:05:58.446Z,101439.41
2022-11-02T10:08:40.978Z,101440.28
2022-11-02T10:11:24.119Z,101437.88
2022-11-02T10:13:56.664Z,101444.44
2022-11-02T10:16:24.472Z,101446.41
2022-11-02T10:18:50.523Z,101442.97
2022-11-02T10:21:18.723Z,101454.31
2022-11-02T10:23:50.408Z,101449.69
2022-11-02T10:26:20.596Z,101440.97
2022-11-02T10:28:50.093Z,101449.53
2022-11-02T10:31:25.261Z,101449.00
2022-11-02T10:33:50.732Z,101449.34
2022-11-02T10:36:31.454Z,101456.63
2022-11-02T10:39:14.141Z,101448.28
2022-11-02T10:41:56.599Z,101449.31
2022-11-02T10:44:40.284Z,101450.97
2022-11-02T10:47:14.582Z,101452.59
2022-11-02T10:50:12.711Z,101447.56
2022-11-02T10:52:39.055Z,101450.72
2022-11-02T10:55:04.325Z,101459.00
2022-11-02T10:57:29.291Z,101455.63
2022-11-02T11:00:28.169Z,101454.31
2022-11-02T11:03:14.823Z,101463.09
2022-11-02T11:05:57.000Z,101464.72
2022-11-02T11:08:38.873Z,101470.06
2022-11-02T11:11:30.041Z,101476.72
2022-11-02T11:16:50.230Z,101482.88
2022-11-02T11:19:38.598Z,101475.91
2022-11-02T11:22:03.578Z,101482.72
2022-11-02T11:24:30.739Z,101474.09
2022-11-02T11:27:19.502Z,101482.06
2022-11-02T11:29:49.923Z,101483.59
2022-11-02T11:32:18.564Z,101479.16
2022-11-02T11:34:42.617Z,101484.03
2022-11-02T11:37:10.018Z,101481.94
2022-11-02T11:39:34.603Z,101485.31
2022-11-02T11:41:59.354Z,101492.31
2022-11-02T11:44:24.797Z,101489.34
2022-11-02T11:46:50.989Z,101482.28
2022-11-02T11:49:35.837Z,101488.28
2022-11-02T11:52:07.289Z,101479.75
2022-11-02T11:54:31.712Z,101476.28
2022-11-02T11:56:57.857Z,101474.50
2022-11-02T11:59:32.254Z,101477.09
2022-11-02T12:01:59.505Z,101470.13
2022-11-02T12:04:35.650Z,101470.16
2022-11-02T12:07:27.046Z,101472.34
2022-11-02T12:10:04.378Z,101478.34
2022-11-02T12:12:44.769Z,101466.72
2022-11-02T12:15:27.605Z,101458.00
2022-11-02T12:18:13.479Z,101464.97
2022-11-02T12:20:54.836Z,101466.72
2022-11-02T12:23:37.641Z,101467.59
2022-11-02T12:26:19.301Z,101461.88
2022-11-02T12:28:51.621Z,101472.44
2022-11-02T12:31:31.647Z,101472.56
2022-11-02T12:34:17.810Z,101477.84
2022-11-02T12:37:31.684Z,101459.47
2022-11-02T12:39:57.842Z,101460.72
2022-11-02T12:42:29.446Z,101454.16
2022-11-02T12:45:23.177Z,101462.53
2022-11-02T12:47:59.134Z,101459.59
2022-11-02T12:50:38.227Z,101468.16
2022-11-02T12:53:22.625Z,101474.81
2022-11-02T12:55:51.425Z,101474.84
2022-11-02T12:58:22.584Z,101468.16
2022-11-02T13:00:49.561Z,101475.41
2022-11-02T13:03:31.812Z,101466.16
2022-11-02T13:06:04.959Z,101477.25
2022-11-02T13:08:37.888Z,101468.84
2022-11-02T13:11:08.634Z,101480.34
2022-11-02T13:13:39.969Z,101475.41
2022-11-02T13:16:06.574Z,101490.09
2022-11-02T13:18:39.951Z,101480.97
2022-11-02T13:21:06.138Z,101479.19
2022-11-02T13:23:37.852Z,101491.88
2022-11-02T13:26:06.498Z,101494.53
2022-11-02T13:28:38.256Z,101481.09
2022-11-02T13:31:06.338Z,101487.78
2022-11-02T13:33:45.875Z,101488.13
2022-11-02T13:36:10.390Z,101484.97
2022-11-02T13:38:41.407Z,101496.66
2022-11-02T13:41:33.014Z,101507.84
2022-11-02T13:44:53.381Z,101501.88
2022-11-02T13:47:58.403Z,101506.38
2022-11-02T13:50:26.920Z,101498.84
2022-11-02T13:52:58.506Z,101506.22
2022-11-02T13:55:27.157Z,101499.59
2022-11-02T13:57:56.931Z,101496.59
2022-11-02T14:00:37.573Z,101496.06
2022-11-02T14:03:09.305Z,101496.78
2022-11-02T14:05:37.281Z,101500.31
2022-11-02T14:08:03.488Z,101493.06
2022-11-02T14:10:27.519Z,101502.38
2022-11-02T14:12:52.055Z,101501.63
2022-11-02T14:15:53.886Z,101504.56
2022-11-02T14:18:33.421Z,101511.94
2022-11-02T14:20:58.964Z,101516.25
2022-11-02T14:23:41.700Z,101519.72
2022-11-02T14:26:05.541Z,101515.13
2022-11-02T14:28:34.728Z,101516.84
2022-11-02T14:31:17.682Z,101526.69
2022-11-02T14:34:27.683Z,101527.94
2022-11-02T14:37:11.694Z,101530.00
2022-11-02T14:39:48.187Z,101530.97
2022-11-02T14:42:41.425Z,101542.06
2022-11-02T14:45:24.333Z,101545.59
2022-11-02T14:47:48.030Z,101548.81
2022-11-02T14:50:18.841Z,101545.22
2022-11-02T14:52:56.786Z,101558.03
2022-11-02T14:55:25.901Z,101557.59
2022-11-02T14:57:56.324Z,101557.38
2022-11-02T15:00:22.944Z,101558.72
2022-11-02T15:02:47.220Z,101570.13
2022-11-02T15:05:24.893Z,101569.03
2022-11-02T15:07:54.752Z,101573.06
2022-11-02T15:10:53.622Z,101568.03
2022-11-02T15:13:38.317Z,101573.16
2022-11-02T15:16:25.339Z,101570.13
2022-11-02T15:18:49.268Z,101573.16
2022-11-02T15:21:31.445Z,101572.81
2022-11-02T15:24:16.588Z,101582.16
2022-11-02T15:26:48.811Z,101582.28
2022-11-02T15:29:23.844Z,101593.47
2022-11-02T15:31:54.744Z,101591.50
2022-11-02T15:34:20.709Z,101588.31
2022-11-02T15:36:45.750Z,101581.06
2022-11-02T15:39:13.638Z,101587.56
2022-11-02T15:41:45.242Z,101602.81
2022-11-02T15:44:49.142Z,101607.09
2022-11-02T15:47:27.392Z,101601.59
2022-11-02T15:50:20.078Z,101607.84
2022-11-02T15:53:21.764Z,101600.25
2022-11-02T15:55:55.106Z,101606.03
2022-11-02T15:58:33.385Z,101616.06
2022-11-02T16:01:15.215Z,101613.72
2022-11-02T16:03:39.235Z,101622.69
2022-11-02T16:06:06.011Z,101629.16
2022-11-02T16:08:35.042Z,101628.78
2022-11-02T16:11:13.837Z,101625.03
2022-11-02T16:13:55.701Z,101630.94
2022-11-02T16:16:22.075Z,101626.50
2022-11-02T16:18:50.982Z,101631.91
2022-11-02T16:21:17.371Z,101635.09
2022-11-02T16:23:44.261Z,101629.94
2022-11-02T16:26:19.645Z,101635.00
2022-11-02T16:28:43.327Z,101639.94
2022-11-02T16:31:19.020Z,101639.94
2022-11-02T16:33:45.794Z,101635.50
2022-11-02T16:36:12.073Z,101635.91
2022-11-02T16:38:37.497Z,101646.78
2022-11-02T16:41:02.584Z,101645.44
2022-11-02T16:43:28.317Z,101640.38
2022-11-02T16:45:52.337Z,101654.53
2022-11-02T16:48:22.869Z,101656.94
2022-11-02T16:51:03.136Z,101666.25
2022-11-02T16:53:30.251Z,101659.00
2022-11-02T16:55:59.409Z,101663.25
2022-11-02T16:58:26.933Z,101665.41
2022-11-02T17:00:59.293Z,101676.91
2022-11-02T17:03:27.794Z,101667.00
2022-11-02T17:05:52.356Z,101668.09
2022-11-02T17:08:30.001Z,101679.66
2022-11-02T17:10:57.208Z,101677.84
2022-11-02T17:13:22.174Z,101677.84
2022-11-02T17:15:50.554Z,101683.03
2022-11-02T17:18:26.978Z,101686.13
2022-11-02T17:21:32.123Z,101685.59
2022-11-02T17:23:58.197Z,101679.56
2022-11-02T17:26:45.466Z,101680.00
2022-11-02T17:29:34.904Z,101682.88
2022-11-02T17:32:01.548Z,101682.13
2022-11-02T17:34:25.410Z,101685.88
2022-11-02T17:36:50.877Z,101693.63
2022-11-02T17:39:16.269Z,101693.72
2022-11-02T17:41:57.409Z,101692.72
2022-11-02T17:44:20.952Z,101693.03
2022-11-02T17:46:46.088Z,101703.22
2022-11-02T17:49:11.315Z,101699.75
2022-11-02T17:51:34.949Z,101698.72
2022-11-02T17:53:58.551Z,101701.00
2022-11-02T17:56:22.189Z,101705.28
2022-11-02T17:58:45.786Z,101710.66
2022-11-02T18:01:13.414Z,101714.25
2022-11-02T18:03:37.142Z,101709.84
2022-11-02T18:06:02.109Z,101717.41
2022-11-02T18:08:25.744Z,101722.06
2022-11-02T18:10:52.085Z,101716.47
2022-11-02T18:13:17.434Z,101719.66
2022-11-02T18:15:41.422Z,101722.63
2022-11-02T18:18:05.262Z,101718.72
2022-11-02T18:20:31.287Z,101717.81
2022-11-02T18:22:57.084Z,101716.78
2022-11-02T18:27:49.792Z,101732.41
2022-11-02T18:30:16.511Z,101721.38
2022-11-02T18:32:40.613Z,101723.78
2022-11-02T18:35:04.483Z,101717.06
2022-11-02T18:37:28.666Z,101717.56
2022-11-02T18:39:53.616Z,101722.84
2022-11-02T18:42:17.207Z,101728.97
2022-11-02T18:44:40.866Z,101728.38
2022-11-02T18:47:04.711Z,101731.81
2022-11-02T18:49:28.377Z,101729.38
2022-11-02T18:51:52.088Z,101728.81
2022-11-02T18:54:16.961Z,101727.38
2022-11-02T18:56:42.049Z,101727.63
2022-11-02T18:59:06.129Z,101732.53
2022-11-02T19:01:30.109Z,101739.22
2022-11-02T19:03:55.904Z,101733.19
2022-11-02T19:06:38.245Z,101734.56
2022-11-02T19:09:20.165Z,101739.44
2022-11-02T19:11:46.662Z,101746.03
2022-11-02T19:14:10.189Z,101737.31
2022-11-02T19:16:33.837Z,101733.63
2022-11-02T19:18:57.433Z,101739.81
2022-11-02T19:21:21.389Z,101741.22
2022-11-02T19:23:45.198Z,101736.03
2022-11-02T19:26:09.322Z,101740.81
2022-11-02T19:28:34.881Z,101745.63
2022-11-02T19:30:58.521Z,101733.44
2022-11-02T19:33:22.131Z,101741.78
2022-11-02T19:35:55.616Z,101742.97
2022-11-02T19:38:19.181Z,101745.66
2022-11-02T19:40:42.712Z,101737.78
2022-11-02T19:43:06.629Z,101737.97
2022-11-02T19:45:31.756Z,101749.88
2022-11-02T19:47:55.320Z,101749.59
2022-11-02T19:50:18.969Z,101745.53
2022-11-02T19:52:42.541Z,101745.63
2022-11-02T19:55:07.302Z,101741.56
2022-11-02T19:57:33.311Z,101741.72
2022-11-02T19:59:57.119Z,101737.41
2022-11-02T20:02:22.097Z,101743.19
2022-11-02T20:04:47.116Z,101742.38
2022-11-02T20:07:10.698Z,101745.31
2022-11-02T20:09:34.245Z,101741.19
2022-11-02T20:11:59.219Z,101751.72
2022-11-02T20:14:22.778Z,101760.41
2022-11-02T20:16:58.270Z,101757.38
2022-11-02T20:19:24.013Z,101757.63
2022-11-02T20:21:47.550Z,101759.72
2022-11-02T20:24:11.935Z,101759.91
2022-11-02T20:26:38.513Z,101766.28
2022-11-02T20:29:04.118Z,101774.22
2022-11-02T20:31:30.152Z,101766.75
2022-11-02T20:33:54.458Z,101770.63
2022-11-02T20:36:19.400Z,101760.16
2022-11-02T20:38:43.169Z,101768.19
2022-11-02T20:41:09.631Z,101766.63
2022-11-02T20:43:33.311Z,101767.69
2022-11-02T20:46:35.454Z,101775.91
2022-11-02T20:48:50.279Z,101768.25
2022-11-02T20:51:15.208Z,101772.03
2022-11-02T20:53:40.741Z,101768.19
2022-11-02T20:56:04.670Z,101776.81
2022-11-02T20:58:28.605Z,101768.66
2022-11-02T21:00:52.932Z,101774.31
2022-11-02T21:03:16.829Z,101773.78
2022-11-02T21:05:40.778Z,101770.47
2022-11-02T21:08:04.413Z,101779.56
2022-11-02T21:10:29.593Z,101783.31
2022-11-02T21:13:10.357Z,101781.66
2022-11-02T21:15:36.170Z,101777.78
2022-11-02T21:18:01.778Z,101780.03
2022-11-02T21:20:40.720Z,101783.44
2022-11-02T21:23:05.736Z,101769.78
2022-11-02T21:25:31.818Z,101778.41
2022-11-02T21:27:55.684Z,101774.88
2022-11-02T21:30:20.313Z,101774.06
2022-11-02T21:32:44.079Z,101787.25
2022-11-02T21:35:08.838Z,101780.34
2022-11-02T21:37:32.436Z,101782.16
2022-11-02T21:39:55.995Z,101782.16
2022-11-02T21:42:20.938Z,101787.94
2022-11-02T21:44:44.433Z,101776.25
2022-11-02T21:47:08.854Z,101777.69
2022-11-02T21:49:32.337Z,101776.66
2022-11-02T21:51:56.154Z,101783.16
2022-11-02T21:54:19.738Z,101783.94
2022-11-02T21:56:43.305Z,101776.88
2022-11-02T21:59:09.486Z,101782.44
2022-11-02T22:01:47.220Z,101772.78
2022-11-02T22:04:12.453Z,101775.50
2022-11-02T22:06:37.630Z,101771.28
2022-11-02T22:09:02.042Z,101771.19
2022-11-02T22:11:28.251Z,101774.78
2022-11-02T22:13:53.522Z,101769.75
2022-11-02T22:16:20.935Z,101765.56
2022-11-02T22:18:45.899Z,101762.88
2022-11-02T22:21:09.597Z,101774.66
2022-11-02T22:23:33.422Z,101769.31
2022-11-02T22:26:00.972Z,101772.09
2022-11-02T22:28:24.885Z,101763.31
2022-11-02T22:30:48.444Z,101763.38
2022-11-02T22:33:13.393Z,101764.22
2022-11-02T22:35:38.067Z,101758.25
2022-11-02T22:38:18.982Z,101760.63
2022-11-02T22:40:42.574Z,101756.81
2022-11-02T22:43:06.473Z,101758.53
2022-11-02T22:45:30.235Z,101755.94
2022-11-02T22:47:53.936Z,101759.56
2022-11-02T22:50:21.413Z,101753.53
2022-11-02T22:52:47.354Z,101756.16
2022-11-02T22:55:11.630Z,101751.03
2022-11-02T22:57:35.170Z,101755.28
2022-11-02T22:59:58.747Z,101756.81
2022-11-02T23:02:22.385Z,101752.09
2022-11-02T23:04:45.933Z,101749.66
2022-11-02T23:07:11.022Z,101752.25
2022-11-02T23:09:34.577Z,101761.91
2022-11-02T23:11:57.173Z,101762.16
2022-11-02T23:14:21.184Z,101752.63
2022-11-02T23:16:47.169Z,101747.44
2022-11-02T23:19:28.551Z,101753.75
2022-11-02T23:22:09.653Z,101752.50
2022-11-02T23:24:52.068Z,101755.56
2022-11-02T23:27:15.664Z,101746.13
2022-11-02T23:29:56.389Z,101757.78
2022-11-02T23:32:27.195Z,101745.13
2022-11-02T23:35:08.082Z,101746.63
2022-11-02T23:37:32.221Z,101745.59
2022-11-02T23:39:57.128Z,101743.97
2022-11-02T23:42:20.772Z,101746.63
2022-11-02T23:44:44.374Z,101744.94
2022-11-02T23:47:07.989Z,101739.84
2022-11-02T23:49:31.566Z,101745.06
2022-11-02T23:52:12.424Z,101737.25
2022-11-02T23:54:53.268Z,101739.91
2022-11-02T23:57:18.687Z,101739.91
2022-11-02T23:59:42.272Z,101733.66
